< < Back
Terminal Aerodrome Forecast


Current Version              Previous Versions:   1  2  3  4  5  6  7  8  9  

Terminal Aerodrome Forecast

879
FTUS44 KHUN 191730
TAFHSV
TAF
KHSV 191730Z 1918/2018 04012G20KT P6SM SCT250
     FM200000 08005KT P6SM SKC
     FM201400 13005KT P6SM FEW250=

Latest METAR

697
SAUS80 KWBC 192200 RRC
MTRHSV
METAR KHSV 192153Z 05008KT 10SM FEW250 25/04 A3011 RMK AO2 SLP191
T02500044


USA.gov is the U.S. government's official web portal to all federal, state and local government web resources and services.